createdAt,value
2023-04-11T00:00:06.420Z,104.89
2023-04-11T00:01:06.420Z,104.92
2023-04-11T00:02:06.582Z,104.17
2023-04-11T00:03:06.549Z,107.77
2023-04-11T00:04:06.598Z,106.15
2023-04-11T00:05:06.536Z,104.82
2023-04-11T00:06:06.511Z,103.98
2023-04-11T00:07:06.592Z,106.14
2023-04-11T00:08:06.606Z,102.74
2023-04-11T00:09:06.680Z,102.34
2023-04-11T00:10:06.751Z,102.45
2023-04-11T00:11:06.867Z,104.45
2023-04-11T00:12:06.829Z,104.54
2023-04-11T00:13:06.875Z,101.36
2023-04-11T00:14:06.929Z,104.06
2023-04-11T00:15:06.938Z,103.76
2023-04-11T00:16:07.040Z,104.16
2023-04-11T00:17:07.002Z,102.06
2023-04-11T00:18:07.110Z,105.02
2023-04-11T00:19:07.044Z,106.01
2023-04-11T00:20:07.092Z,107.48
2023-04-11T00:21:07.082Z,106.10
2023-04-11T00:22:07.105Z,106.53
2023-04-11T00:23:07.180Z,99.65
2023-04-11T00:24:07.154Z,104.20
2023-04-11T00:25:07.152Z,106.27
2023-04-11T00:26:07.151Z,105.11
2023-04-11T00:27:07.172Z,102.91
2023-04-11T00:28:07.157Z,99.94
2023-04-11T00:29:07.158Z,107.47
2023-04-11T00:30:07.156Z,102.30
2023-04-11T00:31:07.140Z,104.84
2023-04-11T00:32:07.278Z,103.89
2023-04-11T00:33:07.176Z,103.96
2023-04-11T00:34:07.115Z,103.54
2023-04-11T00:35:07.192Z,102.34
2023-04-11T00:36:07.151Z,104.03
2023-04-11T00:37:07.155Z,104.31
2023-04-11T00:38:07.085Z,103.98
2023-04-11T00:39:07.070Z,103.20
2023-04-11T00:40:07.084Z,104.98
2023-04-11T00:41:07.047Z,104.44
2023-04-11T00:42:07.024Z,102.55
2023-04-11T00:43:07.009Z,104.24
2023-04-11T00:44:07.003Z,104.34
2023-04-11T00:45:06.976Z,102.09
2023-04-11T00:46:07.024Z,104.67
2023-04-11T00:47:06.971Z,95.61
2023-04-11T00:48:06.957Z,105.52
2023-04-11T00:49:06.910Z,98.73
2023-04-11T00:50:06.901Z,99.26
2023-04-11T00:51:06.875Z,98.51
2023-04-11T00:52:06.870Z,97.94
2023-04-11T00:53:06.850Z,96.64
2023-04-11T00:54:06.841Z,101.58
2023-04-11T00:55:06.818Z,100.16
2023-04-11T00:56:06.834Z,104.57
2023-04-11T00:57:06.828Z,100.93
2023-04-11T00:58:06.801Z,102.98
2023-04-11T00:59:06.798Z,102.58
2023-04-11T01:00:06.776Z,104.89
2023-04-11T01:01:06.817Z,99.46
2023-04-11T01:02:06.826Z,99.65
2023-04-11T01:03:06.946Z,100.26
2023-04-11T01:04:06.845Z,99.38
2023-04-11T01:05:06.738Z,100.57
2023-04-11T01:06:06.733Z,101.43
2023-04-11T01:07:06.711Z,100.10
2023-04-11T01:08:06.694Z,100.38
2023-04-11T01:09:06.684Z,98.51
2023-04-11T01:10:06.685Z,98.79
2023-04-11T01:11:06.662Z,96.03
2023-04-11T01:12:06.661Z,93.84
2023-04-11T01:13:06.640Z,95.57
2023-04-11T01:14:06.630Z,98.79
2023-04-11T01:15:06.617Z,97.75
2023-04-11T01:16:06.624Z,100.77
2023-04-11T01:17:06.633Z,97.69
2023-04-11T01:18:06.637Z,96.34
2023-04-11T01:19:06.592Z,94.74
2023-04-11T01:20:06.575Z,96.68
2023-04-11T01:21:06.571Z,94.42
2023-04-11T01:22:06.571Z,98.37
2023-04-11T01:23:06.545Z,94.91
2023-04-11T01:24:06.546Z,89.92
2023-04-11T01:25:06.531Z,94.67
2023-04-11T01:26:06.529Z,93.88
2023-04-11T01:27:06.514Z,90.40
2023-04-11T01:28:06.503Z,93.59
2023-04-11T01:29:06.486Z,96.10
2023-04-11T01:30:06.503Z,94.34
2023-04-11T01:31:06.524Z,92.63
2023-04-11T01:32:06.465Z,92.83
2023-04-11T01:33:06.476Z,92.29
2023-04-11T01:34:06.426Z,88.96
2023-04-11T01:35:06.444Z,84.76
2023-04-11T01:36:06.413Z,91.31
2023-04-11T01:37:06.393Z,90.39
2023-04-11T01:38:06.383Z,89.46
2023-04-11T01:39:06.364Z,91.88
2023-04-11T01:40:06.343Z,91.11
2023-04-11T01:41:06.325Z,92.80
2023-04-11T01:42:06.323Z,85.59
2023-04-11T01:43:06.301Z,87.51
2023-04-11T01:44:06.290Z,86.65
2023-04-11T01:45:06.269Z,91.58
2023-04-11T01:46:06.265Z,91.65
2023-04-11T01:47:06.292Z,86.96
2023-04-11T01:48:06.289Z,86.45
2023-04-11T01:49:06.237Z,87.59
2023-04-11T01:50:06.195Z,85.50
2023-04-11T01:51:06.179Z,83.75
2023-04-11T01:52:06.171Z,84.49
2023-04-11T01:53:06.157Z,81.34
2023-04-11T01:54:06.136Z,81.95
2023-04-11T01:55:06.123Z,84.80
2023-04-11T01:56:06.125Z,84.77
2023-04-11T01:57:06.112Z,81.43
2023-04-11T01:58:06.110Z,81.62
2023-04-11T01:59:06.077Z,81.93
2023-04-11T02:00:06.063Z,81.68
2023-04-11T02:01:06.064Z,82.43
2023-04-11T02:02:06.126Z,84.07
2023-04-11T02:03:06.145Z,85.08
2023-04-11T02:04:06.166Z,89.59
2023-04-11T02:05:06.001Z,85.80
2023-04-11T02:06:06.002Z,87.21
2023-04-11T02:07:05.986Z,83.50
2023-04-11T02:08:05.970Z,84.12
2023-04-11T02:09:05.955Z,84.53
2023-04-11T02:10:05.953Z,82.96
2023-04-11T02:11:05.923Z,84.65
2023-04-11T02:12:05.914Z,82.50
2023-04-11T02:13:05.922Z,86.68
2023-04-11T02:14:05.885Z,81.54
2023-04-11T02:15:05.872Z,83.16
2023-04-11T02:16:05.901Z,82.39
2023-04-11T02:17:05.862Z,83.99
2023-04-11T02:18:05.898Z,84.52
2023-04-11T02:19:05.843Z,75.97
2023-04-11T02:20:05.843Z,78.39
2023-04-11T02:21:05.885Z,84.36
2023-04-11T02:22:05.833Z,81.86
2023-04-11T02:23:05.834Z,78.98
2023-04-11T02:24:05.815Z,79.27
2023-04-11T02:25:05.802Z,80.44
2023-04-11T02:26:05.805Z,82.87
2023-04-11T02:27:05.778Z,82.19
2023-04-11T02:28:08.090Z,81.66
2023-04-11T02:29:05.893Z,76.16
2023-04-11T02:30:05.925Z,81.12
2023-04-11T02:31:06.014Z,79.15
2023-04-11T02:32:05.990Z,81.29
2023-04-11T02:33:06.031Z,81.53
2023-04-11T02:34:05.903Z,80.23
2023-04-11T02:35:05.909Z,80.12
2023-04-11T02:36:05.967Z,77.53
2023-04-11T02:37:05.922Z,77.67
2023-04-11T02:38:05.922Z,81.59
2023-04-11T02:39:05.914Z,77.58
2023-04-11T02:40:05.916Z,80.91
2023-04-11T02:41:05.934Z,76.50
2023-04-11T02:42:05.921Z,78.47
2023-04-11T02:43:05.931Z,78.97
2023-04-11T02:44:05.939Z,76.17
2023-04-11T02:45:05.919Z,79.22
2023-04-11T02:46:12.542Z,76.85
2023-04-11T02:47:06.916Z,76.90
2023-04-11T02:48:05.913Z,76.08
2023-04-11T02:49:05.863Z,75.24
2023-04-11T02:50:05.854Z,76.06
2023-04-11T02:51:05.825Z,79.08
2023-04-11T02:52:05.806Z,76.95
2023-04-11T02:53:05.828Z,76.16
2023-04-11T02:54:05.790Z,79.49
2023-04-11T02:55:05.778Z,78.62
2023-04-11T02:56:05.767Z,76.66
2023-04-11T02:57:05.761Z,75.38
2023-04-11T02:58:05.748Z,77.67
2023-04-11T02:59:05.729Z,74.45
2023-04-11T03:00:05.710Z,70.21
2023-04-11T03:01:05.698Z,76.07
2023-04-11T03:02:05.725Z,76.89
2023-04-11T03:03:05.791Z,77.23
2023-04-11T03:04:05.697Z,79.09
2023-04-11T03:05:05.643Z,77.56
2023-04-11T03:06:05.617Z,78.07
2023-04-11T03:07:05.595Z,76.87
2023-04-11T03:08:05.579Z,75.94
2023-04-11T03:09:05.574Z,79.42
2023-04-11T03:10:05.540Z,74.73
2023-04-11T03:11:05.552Z,74.48
2023-04-11T03:12:05.600Z,72.15
2023-04-11T03:13:05.521Z,75.53
2023-04-11T03:14:05.489Z,74.30
2023-04-11T03:15:05.485Z,75.69
2023-04-11T03:16:05.470Z,73.67
2023-04-11T03:17:05.447Z,71.28
2023-04-11T03:18:05.534Z,72.56
2023-04-11T03:19:05.460Z,74.29
2023-04-11T03:20:05.458Z,70.55
2023-04-11T03:21:05.461Z,73.57
2023-04-11T03:22:05.457Z,75.84
2023-04-11T03:23:05.475Z,73.46
2023-04-11T03:24:05.469Z,71.35
2023-04-11T03:25:05.475Z,74.25
2023-04-11T03:26:05.474Z,75.04
2023-04-11T03:27:05.464Z,73.33
2023-04-11T03:28:05.477Z,74.49
2023-04-11T03:29:05.479Z,79.83
2023-04-11T03:30:05.483Z,76.72
2023-04-11T03:31:05.531Z,77.31
2023-04-11T03:32:05.468Z,75.43
2023-04-11T03:33:05.490Z,74.55
2023-04-11T03:34:05.457Z,77.31
2023-04-11T03:35:05.463Z,76.32
2023-04-11T03:36:05.547Z,75.43
2023-04-11T03:37:05.470Z,75.76
2023-04-11T03:38:05.482Z,74.61
2023-04-11T03:39:05.472Z,71.80
2023-04-11T03:40:05.481Z,74.47
2023-04-11T03:41:05.481Z,78.06
2023-04-11T03:42:05.478Z,72.60
2023-04-11T03:43:05.517Z,77.56
2023-04-11T03:44:05.488Z,73.18
2023-04-11T03:45:05.496Z,68.72
2023-04-11T03:46:05.543Z,75.33
2023-04-11T03:47:05.651Z,77.45
2023-04-11T03:48:05.564Z,79.18
2023-04-11T03:49:05.534Z,73.71
2023-04-11T03:50:05.530Z,72.90
2023-04-11T03:51:05.576Z,70.89
2023-04-11T03:52:05.569Z,69.65
2023-04-11T03:53:05.577Z,68.98
2023-04-11T03:54:05.552Z,66.18
2023-04-11T03:55:05.566Z,68.38
2023-04-11T03:56:05.585Z,69.82
2023-04-11T03:57:05.580Z,69.79
2023-04-11T03:58:05.598Z,66.65
2023-04-11T03:59:05.590Z,69.84
2023-04-11T04:00:05.594Z,62.54
2023-04-11T04:01:05.593Z,68.88
2023-04-11T04:02:05.689Z,71.94
2023-04-11T04:03:05.867Z,69.73
2023-04-11T04:04:05.858Z,73.39
2023-04-11T04:05:05.683Z,70.12
2023-04-11T04:06:05.623Z,70.55
2023-04-11T04:07:05.628Z,71.30
2023-04-11T04:08:05.633Z,71.36
2023-04-11T04:09:05.648Z,70.70
2023-04-11T04:10:05.655Z,72.25
2023-04-11T04:11:05.672Z,72.37
2023-04-11T04:12:05.659Z,73.71
2023-04-11T04:13:05.659Z,72.69
2023-04-11T04:14:05.676Z,67.74
2023-04-11T04:15:05.678Z,70.94
2023-04-11T04:16:05.733Z,68.83
2023-04-11T04:17:05.683Z,68.32
2023-04-11T04:18:05.813Z,70.84
2023-04-11T04:19:05.755Z,69.80
2023-04-11T04:20:05.704Z,72.09
2023-04-11T04:21:05.706Z,71.78
2023-04-11T04:22:05.717Z,74.34
2023-04-11T04:23:05.729Z,67.90
2023-04-11T04:24:05.741Z,71.16
2023-04-11T04:25:05.739Z,68.97
2023-04-11T04:26:05.740Z,65.21
2023-04-11T04:27:05.743Z,67.36
2023-04-11T04:28:05.742Z,71.92
2023-04-11T04:29:05.807Z,65.81
2023-04-11T04:30:05.772Z,64.03
2023-04-11T04:31:05.789Z,63.15
2023-04-11T04:32:05.821Z,66.50
2023-04-11T04:33:05.838Z,65.83
2023-04-11T04:34:05.810Z,67.28
2023-04-11T04:35:05.847Z,67.12
2023-04-11T04:36:05.880Z,69.11
2023-04-11T04:37:05.841Z,67.27
2023-04-11T04:38:05.846Z,64.56
2023-04-11T04:39:05.868Z,65.88
2023-04-11T04:40:05.879Z,66.76
2023-04-11T04:41:05.903Z,64.86
2023-04-11T04:42:05.895Z,67.57
2023-04-11T04:43:05.908Z,70.62
2023-04-11T04:44:05.900Z,69.69
2023-04-11T04:45:05.935Z,70.12
2023-04-11T04:46:05.983Z,66.20
2023-04-11T04:47:05.915Z,66.36
2023-04-11T04:48:05.973Z,66.44
2023-04-11T04:49:05.913Z,67.23
2023-04-11T04:50:05.890Z,67.84
2023-04-11T04:51:05.884Z,67.38
2023-04-11T04:52:05.878Z,74.42
2023-04-11T04:53:05.855Z,71.54
2023-04-11T04:54:05.852Z,68.68
2023-04-11T04:55:05.853Z,70.35
2023-04-11T04:56:05.833Z,70.68
2023-04-11T04:57:05.821Z,72.14
2023-04-11T04:58:05.818Z,67.76
2023-04-11T04:59:05.797Z,66.79
2023-04-11T05:00:05.781Z,67.07
2023-04-11T05:01:05.831Z,64.05
2023-04-11T05:02:05.841Z,69.73
2023-04-11T05:03:06.025Z,67.28
2023-04-11T05:04:05.959Z,68.14
2023-04-11T05:05:05.745Z,66.65
2023-04-11T05:06:05.734Z,66.90
2023-04-11T05:07:05.740Z,67.39
2023-04-11T05:08:05.720Z,64.82
2023-04-11T05:09:05.709Z,67.81
2023-04-11T05:10:05.716Z,62.17
2023-04-11T05:11:05.678Z,61.72
2023-04-11T05:12:07.146Z,61.91
2023-04-11T05:13:05.668Z,66.34
2023-04-11T05:14:05.656Z,68.65
2023-04-11T05:15:05.657Z,70.60
2023-04-11T05:16:05.666Z,69.45
2023-04-11T05:17:05.728Z,71.78
2023-04-11T05:18:05.799Z,69.15
2023-04-11T05:19:05.702Z,68.76
2023-04-11T05:20:05.699Z,70.02
2023-04-11T05:21:05.728Z,70.22
2023-04-11T05:22:05.730Z,70.29
2023-04-11T05:23:05.738Z,68.65
2023-04-11T05:24:05.819Z,70.55
2023-04-11T05:25:05.798Z,69.38
2023-04-11T05:26:05.781Z,67.05
2023-04-11T05:27:05.791Z,64.59
2023-04-11T05:28:05.806Z,63.82
2023-04-11T05:29:05.813Z,67.01
2023-04-11T05:30:05.810Z,67.99
2023-04-11T05:31:05.878Z,68.65
2023-04-11T05:32:05.841Z,65.99
2023-04-11T05:33:05.867Z,66.09
2023-04-11T05:34:05.817Z,66.55
2023-04-11T05:35:05.809Z,66.35
2023-04-11T05:36:06.008Z,68.84
2023-04-11T05:37:05.774Z,76.69
2023-04-11T05:38:05.757Z,91.23
2023-04-11T05:39:05.749Z,114.63
2023-04-11T05:40:05.723Z,68.19
2023-04-11T05:41:05.715Z,78.15
2023-04-11T05:42:06.795Z,100.95
2023-04-11T05:43:05.669Z,141.46
2023-04-11T05:44:05.658Z,208.65
2023-04-11T05:45:05.822Z,235.82
2023-04-11T05:46:05.665Z,250.00
2023-04-11T05:47:05.598Z,248.94
2023-04-11T05:48:05.649Z,249.42
2023-04-11T05:49:05.610Z,249.54
2023-04-11T05:50:05.617Z,249.91
2023-04-11T05:51:06.032Z,250.00
2023-04-11T05:52:05.674Z,249.41
2023-04-11T05:53:05.705Z,248.02
2023-04-11T05:54:05.811Z,248.35
2023-04-11T05:55:05.741Z,249.43
2023-04-11T05:56:05.794Z,247.04
2023-04-11T05:57:05.789Z,244.11
2023-04-11T05:58:05.755Z,239.81
2023-04-11T05:59:06.212Z,237.52
2023-04-11T06:00:05.727Z,240.38
2023-04-11T06:01:05.731Z,242.32
2023-04-11T06:02:05.769Z,242.04
2023-04-11T06:03:05.792Z,244.18
2023-04-11T06:04:06.032Z,243.82
2023-04-11T06:05:05.831Z,247.34
2023-04-11T06:06:05.697Z,245.24
2023-04-11T06:07:05.810Z,245.72
2023-04-11T06:08:05.722Z,242.94
2023-04-11T06:09:05.709Z,243.07
2023-04-11T06:10:05.704Z,243.59
2023-04-11T06:11:05.671Z,243.17
2023-04-11T06:12:05.672Z,244.16
2023-04-11T06:13:05.637Z,239.61
2023-04-11T06:14:05.678Z,241.03
2023-04-11T06:15:05.637Z,237.39
2023-04-11T06:16:05.625Z,232.87
2023-04-11T06:17:05.601Z,232.88
2023-04-11T06:18:05.668Z,232.91
2023-04-11T06:19:05.566Z,227.04
2023-04-11T06:20:06.154Z,225.37
2023-04-11T06:21:05.718Z,225.89
2023-04-11T06:22:05.515Z,221.86
2023-04-11T06:23:05.524Z,221.35
2023-04-11T06:24:05.525Z,221.44
2023-04-11T06:25:05.492Z,220.09
2023-04-11T06:26:05.797Z,218.59
2023-04-11T06:27:05.496Z,218.38
2023-04-11T06:28:05.461Z,214.87
2023-04-11T06:29:05.466Z,212.94
2023-04-11T06:30:05.464Z,212.79
2023-04-11T06:31:05.500Z,213.44
2023-04-11T06:32:05.425Z,212.78
2023-04-11T06:33:05.414Z,210.23
2023-04-11T06:34:05.400Z,209.37
2023-04-11T06:35:05.411Z,206.76
2023-04-11T06:36:06.173Z,207.68
2023-04-11T06:37:05.337Z,208.15
2023-04-11T06:38:05.336Z,204.34
2023-04-11T06:39:05.309Z,204.05
2023-04-11T06:40:05.322Z,204.11
2023-04-11T06:41:05.379Z,203.86
2023-04-11T06:42:05.285Z,199.41
2023-04-11T06:43:05.281Z,194.27
2023-04-11T06:44:05.413Z,192.17
2023-04-11T06:45:06.124Z,192.79
2023-04-11T06:46:05.337Z,195.97
2023-04-11T06:47:05.264Z,199.73
2023-04-11T06:48:05.256Z,199.91
2023-04-11T06:49:05.256Z,201.83
2023-04-11T06:50:05.243Z,207.13
2023-04-11T06:51:05.228Z,216.69
2023-04-11T06:52:05.236Z,234.70
2023-04-11T06:53:05.235Z,240.68
2023-04-11T06:54:05.237Z,246.29
2023-04-11T06:55:05.229Z,249.67
2023-04-11T06:56:05.166Z,250.00
2023-04-11T06:57:05.206Z,250.00
2023-04-11T06:58:05.211Z,250.51
2023-04-11T06:59:05.264Z,250.00
2023-04-11T07:00:05.320Z,250.00
2023-04-11T07:01:05.345Z,250.00
2023-04-11T07:02:05.531Z,250.00
2023-04-11T07:03:05.620Z,250.00
2023-04-11T07:04:05.561Z,250.00
2023-04-11T07:05:05.550Z,250.00
2023-04-11T07:06:05.586Z,250.00
2023-04-11T07:07:05.627Z,250.00
2023-04-11T07:08:05.684Z,250.00
2023-04-11T07:09:05.712Z,249.89
2023-04-11T07:10:05.764Z,250.27
2023-04-11T07:11:05.779Z,250.00
2023-04-11T07:12:05.797Z,249.51
2023-04-11T07:13:05.821Z,250.00
2023-04-11T07:14:05.840Z,250.00
2023-04-11T07:15:05.850Z,250.22
2023-04-11T07:16:05.845Z,251.12
2023-04-11T07:17:05.795Z,252.47
2023-04-11T07:18:05.813Z,250.38
2023-04-11T07:19:05.754Z,251.67
2023-04-11T07:20:05.740Z,254.29
2023-04-11T07:21:05.719Z,259.46
2023-04-11T07:22:05.695Z,267.18
2023-04-11T07:23:05.703Z,257.40
2023-04-11T07:24:05.651Z,249.71
2023-04-11T07:25:05.625Z,248.52
2023-04-11T07:26:05.594Z,248.68
2023-04-11T07:27:05.574Z,249.70
2023-04-11T07:28:05.569Z,251.42
2023-04-11T07:29:07.011Z,254.13
2023-04-11T07:30:05.525Z,259.51
2023-04-11T07:31:05.514Z,251.74
2023-04-11T07:32:05.502Z,250.29
2023-04-11T07:33:05.484Z,250.00
2023-04-11T07:34:05.443Z,248.98
2023-04-11T07:35:05.518Z,250.00
2023-04-11T07:36:05.428Z,249.78
2023-04-11T07:37:05.373Z,249.91
2023-04-11T07:38:05.352Z,249.86
2023-04-11T07:39:05.333Z,250.00
2023-04-11T07:40:05.321Z,242.87
2023-04-11T07:41:05.302Z,243.73
2023-04-11T07:42:05.280Z,243.21
2023-04-11T07:43:05.352Z,243.98
2023-04-11T07:44:05.219Z,244.13
2023-04-11T07:45:05.285Z,244.52
2023-04-11T07:46:05.221Z,244.80
2023-04-11T07:47:05.198Z,244.11
2023-04-11T07:48:05.178Z,244.19
2023-04-11T07:49:05.416Z,244.35
2023-04-11T07:50:05.124Z,242.46
2023-04-11T07:51:05.091Z,242.73
2023-04-11T07:52:05.076Z,242.32
2023-04-11T07:53:05.025Z,238.25
2023-04-11T07:54:05.000Z,235.19
2023-04-11T07:55:04.964Z,223.99
2023-04-11T07:56:05.008Z,207.16
2023-04-11T07:57:04.943Z,195.25
2023-04-11T07:58:04.908Z,183.82
2023-04-11T07:59:04.874Z,177.14
2023-04-11T08:00:04.848Z,150.56
2023-04-11T08:01:04.839Z,145.31
2023-04-11T08:02:04.868Z,141.02
2023-04-11T08:03:05.008Z,135.75
2023-04-11T08:04:05.367Z,132.34
2023-04-11T08:05:05.087Z,104.61
2023-04-11T08:06:04.796Z,103.91
2023-04-11T08:07:04.848Z,99.76
2023-04-11T08:08:04.854Z,91.46
2023-04-11T08:09:04.954Z,54.78
2023-04-11T08:10:04.933Z,52.46
2023-04-11T08:11:04.999Z,29.51
2023-04-11T08:12:05.116Z,31.32
2023-04-11T08:13:05.041Z,28.43
2023-04-11T08:14:05.038Z,19.51
2023-04-11T08:15:05.016Z,18.51
2023-04-11T08:16:05.015Z,24.46
2023-04-11T08:17:10.044Z,12.09
2023-04-11T08:18:05.992Z,0.00
2023-04-11T08:19:04.937Z,0.00
2023-04-11T08:20:04.917Z,0.00
2023-04-11T08:21:04.965Z,0.00
2023-04-11T08:22:04.963Z,0.00
2023-04-11T08:23:06.026Z,0.00
2023-04-11T08:24:04.862Z,0.00
2023-04-11T08:25:04.860Z,0.00
2023-04-11T08:26:04.863Z,0.00
2023-04-11T08:27:04.865Z,0.00
2023-04-11T08:28:04.816Z,0.00
2023-04-11T08:29:04.952Z,0.00
2023-04-11T08:30:04.807Z,0.00
2023-04-11T08:31:04.841Z,0.00
2023-04-11T08:32:04.775Z,0.00
2023-04-11T08:33:04.763Z,0.00
2023-04-11T08:34:06.916Z,0.00
2023-04-11T08:35:04.722Z,0.00
2023-04-11T08:36:04.754Z,0.18
2023-04-11T08:37:04.847Z,1.81
2023-04-11T08:38:04.717Z,5.62
2023-04-11T08:39:04.674Z,13.83
2023-04-11T08:40:04.729Z,27.56
2023-04-11T08:41:04.723Z,34.38
2023-04-11T08:42:04.673Z,39.16
2023-04-11T08:43:04.622Z,42.56
2023-04-11T08:44:04.626Z,49.06
2023-04-11T08:45:04.618Z,53.65
2023-04-11T08:46:04.623Z,57.36
2023-04-11T08:47:04.576Z,61.74
2023-04-11T08:48:04.582Z,64.72
2023-04-11T08:49:04.600Z,68.17
2023-04-11T08:50:04.570Z,71.84
2023-04-11T08:51:04.591Z,76.43
2023-04-11T08:52:04.611Z,79.31
2023-04-11T08:53:04.673Z,84.77
2023-04-11T08:54:04.638Z,85.02
2023-04-11T08:55:04.680Z,86.72
2023-04-11T08:56:04.613Z,91.08
2023-04-11T08:57:04.594Z,99.10
2023-04-11T08:58:04.582Z,111.81
2023-04-11T08:59:04.565Z,118.83
2023-04-11T09:00:04.543Z,124.59
2023-04-11T09:01:04.565Z,127.40
2023-04-11T09:02:04.612Z,131.54
2023-04-11T09:03:04.553Z,136.32
2023-04-11T09:04:04.523Z,142.06
2023-04-11T09:05:04.576Z,144.84
2023-04-11T09:06:04.584Z,148.19
2023-04-11T09:07:04.600Z,153.76
2023-04-11T09:08:04.583Z,153.93
2023-04-11T09:09:04.555Z,154.89
2023-04-11T09:10:04.531Z,157.64
2023-04-11T09:11:04.519Z,162.67
2023-04-11T09:12:04.497Z,171.01
2023-04-11T09:13:04.497Z,154.50
2023-04-11T09:14:04.597Z,158.16
2023-04-11T09:15:04.560Z,155.07
2023-04-11T09:16:04.457Z,160.29
2023-04-11T09:17:04.418Z,170.04
2023-04-11T09:18:04.406Z,183.87
2023-04-11T09:19:04.421Z,202.94
2023-04-11T09:20:04.414Z,206.88
2023-04-11T09:21:04.321Z,209.52
2023-04-11T09:22:04.310Z,210.73
2023-04-11T09:23:04.341Z,210.80
2023-04-11T09:24:04.269Z,211.06
2023-04-11T09:25:04.261Z,211.64
2023-04-11T09:26:04.261Z,211.33
2023-04-11T09:27:04.277Z,211.38
2023-04-11T09:28:04.397Z,212.48
2023-04-11T09:29:04.318Z,214.16
2023-04-11T09:30:04.199Z,215.53
2023-04-11T09:31:04.216Z,215.24
2023-04-11T09:32:04.157Z,215.93
2023-04-11T09:33:04.182Z,215.76
2023-04-11T09:34:04.132Z,215.38
2023-04-11T09:35:04.114Z,215.29
2023-04-11T09:36:04.195Z,214.30
2023-04-11T09:37:04.068Z,214.17
2023-04-11T09:38:04.076Z,213.58
2023-04-11T09:39:04.056Z,212.40
2023-04-11T09:40:05.593Z,212.44
2023-04-11T09:41:04.058Z,211.61
2023-04-11T09:42:03.972Z,212.55
2023-04-11T09:43:04.022Z,212.10
2023-04-11T09:44:04.063Z,212.39
2023-04-11T09:45:03.906Z,213.13
2023-04-11T09:46:03.897Z,213.51
2023-04-11T09:47:03.955Z,210.14
2023-04-11T09:48:03.930Z,208.77
2023-04-11T09:49:04.021Z,210.18
2023-04-11T09:50:03.789Z,210.15
2023-04-11T09:51:03.812Z,210.18
2023-04-11T09:52:03.752Z,209.35
2023-04-11T09:53:03.710Z,207.35
2023-04-11T09:54:03.992Z,207.88
2023-04-11T09:55:03.650Z,205.84
2023-04-11T09:56:03.655Z,205.35
2023-04-11T09:57:03.620Z,205.36
2023-04-11T09:58:03.584Z,204.99
2023-04-11T09:59:03.567Z,204.74
2023-04-11T10:00:03.536Z,202.92
2023-04-11T10:01:03.507Z,203.22
2023-04-11T10:02:03.608Z,203.20
2023-04-11T10:03:03.606Z,203.26
2023-04-11T10:04:03.411Z,203.32
2023-04-11T10:05:03.481Z,202.58
2023-04-11T10:06:03.366Z,202.63
2023-04-11T10:07:03.326Z,201.44
2023-04-11T10:08:03.317Z,201.29
2023-04-11T10:09:03.320Z,200.82
2023-04-11T10:10:03.253Z,200.91
2023-04-11T10:11:03.230Z,199.82
2023-04-11T10:12:03.242Z,199.19
2023-04-11T10:13:03.180Z,198.87
2023-04-11T10:14:03.179Z,199.24
2023-04-11T10:15:03.282Z,198.73
2023-04-11T10:16:03.174Z,198.12
2023-04-11T10:17:03.128Z,197.92
2023-04-11T10:18:03.204Z,198.81
2023-04-11T10:19:03.079Z,198.89
2023-04-11T10:20:03.067Z,197.50
2023-04-11T10:21:03.053Z,197.83
2023-04-11T10:22:03.113Z,197.74
2023-04-11T10:23:03.067Z,197.88
2023-04-11T10:24:03.086Z,197.11
2023-04-11T10:25:03.109Z,196.74
2023-04-11T10:26:03.806Z,197.18
2023-04-11T10:27:03.146Z,196.67
2023-04-11T10:28:03.155Z,197.51
2023-04-11T10:29:03.194Z,196.68
2023-04-11T10:30:03.208Z,198.13
2023-04-11T10:31:03.233Z,196.74
2023-04-11T10:32:03.293Z,196.42
2023-04-11T10:33:03.332Z,194.38
2023-04-11T10:34:03.274Z,193.39
2023-04-11T10:35:03.296Z,193.08
2023-04-11T10:36:03.392Z,192.65
2023-04-11T10:37:03.310Z,191.09
2023-04-11T10:38:03.359Z,191.53
2023-04-11T10:39:03.385Z,190.92
2023-04-11T10:40:03.383Z,190.99
2023-04-11T10:41:03.396Z,190.55
2023-04-11T10:42:03.428Z,190.51
2023-04-11T10:43:03.458Z,190.19
2023-04-11T10:44:03.459Z,190.67
2023-04-11T10:45:03.489Z,190.01
2023-04-11T10:46:03.494Z,191.10
2023-04-11T10:47:03.606Z,190.40
2023-04-11T10:48:03.693Z,190.58
2023-04-11T10:49:03.589Z,190.32
2023-04-11T10:50:03.600Z,189.64
2023-04-11T10:51:03.641Z,190.37
2023-04-11T10:52:03.639Z,189.87
2023-04-11T10:53:03.675Z,190.25
2023-04-11T10:54:03.950Z,189.74
2023-04-11T10:55:03.704Z,190.07
2023-04-11T10:56:03.755Z,189.85
2023-04-11T10:57:03.739Z,189.75
2023-04-11T10:58:03.803Z,188.96
2023-04-11T10:59:03.784Z,189.57
2023-04-11T11:01:03.887Z,186.50
2023-04-11T11:02:03.948Z,185.09
2023-04-11T11:03:04.202Z,184.21
2023-04-11T11:04:04.345Z,183.34
2023-04-11T11:05:04.072Z,183.34
2023-04-11T11:06:03.871Z,181.87
2023-04-11T11:07:03.860Z,181.07
2023-04-11T11:08:03.839Z,179.58
2023-04-11T11:09:03.803Z,178.81
2023-04-11T11:10:03.762Z,178.89
2023-04-11T11:11:03.755Z,178.15
2023-04-11T11:12:03.727Z,178.23
2023-04-11T11:13:03.727Z,178.42
2023-04-11T11:14:03.694Z,177.32
2023-04-11T11:15:03.705Z,177.21
2023-04-11T11:16:03.731Z,177.33
2023-04-11T11:17:03.858Z,177.39
2023-04-11T11:18:03.635Z,177.51
2023-04-11T11:19:03.622Z,177.39
2023-04-11T11:20:03.573Z,178.25
2023-04-11T11:21:03.835Z,177.83
2023-04-11T11:22:03.775Z,178.44
2023-04-11T11:23:03.525Z,177.03
2023-04-11T11:24:03.638Z,176.89
2023-04-11T11:25:03.483Z,177.35
2023-04-11T11:26:03.450Z,177.00
2023-04-11T11:27:03.492Z,176.83
2023-04-11T11:28:03.472Z,176.79
2023-04-11T11:29:03.409Z,177.81
2023-04-11T11:30:03.505Z,177.49
2023-04-11T11:31:03.528Z,176.63
2023-04-11T11:32:03.682Z,176.62
2023-04-11T11:33:03.523Z,177.98
2023-04-11T11:34:21.324Z,177.10
2023-04-11T11:35:04.466Z,177.15
2023-04-11T11:36:03.429Z,177.17
2023-04-11T11:37:03.446Z,177.26
2023-04-11T11:38:03.378Z,177.38
2023-04-11T11:39:03.366Z,177.53
2023-04-11T11:40:03.374Z,177.20
2023-04-11T11:41:03.319Z,176.29
2023-04-11T11:42:03.337Z,177.06
2023-04-11T11:43:03.294Z,177.04
2023-04-11T11:44:03.252Z,177.07
2023-04-11T11:45:03.289Z,177.15
2023-04-11T11:46:04.747Z,177.18
2023-04-11T11:47:03.188Z,176.83
2023-04-11T11:48:03.216Z,176.33
2023-04-11T11:49:03.169Z,176.49
2023-04-11T11:50:03.130Z,176.95
2023-04-11T11:51:03.154Z,176.22
2023-04-11T11:52:03.167Z,175.26
2023-04-11T11:53:03.248Z,176.13
2023-04-11T11:54:03.222Z,174.86
2023-04-11T11:55:03.262Z,175.27
2023-04-11T11:56:03.308Z,175.03
2023-04-11T11:57:03.307Z,173.70
2023-04-11T11:58:03.337Z,174.49
2023-04-11T11:59:03.310Z,174.53
2023-04-11T12:00:03.284Z,173.56
2023-04-11T12:01:03.267Z,173.58
2023-04-11T12:02:03.320Z,172.47
2023-04-11T12:03:03.446Z,172.43
2023-04-11T12:04:03.378Z,172.08
2023-04-11T12:05:03.247Z,171.63
2023-04-11T12:06:03.136Z,170.13
2023-04-11T12:07:03.136Z,169.50
2023-04-11T12:08:03.090Z,169.66
2023-04-11T12:09:03.092Z,168.49
2023-04-11T12:10:03.047Z,169.39
2023-04-11T12:11:03.100Z,168.68
2023-04-11T12:12:03.084Z,168.55
2023-04-11T12:13:03.080Z,167.47
2023-04-11T12:14:03.101Z,168.20
2023-04-11T12:15:03.146Z,167.91
2023-04-11T12:16:03.213Z,167.94
2023-04-11T12:17:03.191Z,166.92
2023-04-11T12:18:03.266Z,167.60
2023-04-11T12:19:03.260Z,167.47
2023-04-11T12:20:03.314Z,167.05
2023-04-11T12:21:03.298Z,166.33
2023-04-11T12:22:03.331Z,166.49
2023-04-11T12:23:03.367Z,165.80
2023-04-11T12:24:03.401Z,164.66
2023-04-11T12:25:03.461Z,165.34
2023-04-11T12:26:03.500Z,164.87
2023-04-11T12:27:07.322Z,165.82
2023-04-11T12:28:03.526Z,165.84
2023-04-11T12:29:03.484Z,164.66
2023-04-11T12:30:03.478Z,164.18
2023-04-11T12:31:03.473Z,165.09
2023-04-11T12:32:03.414Z,162.99
2023-04-11T12:33:03.425Z,163.17
2023-04-11T12:34:03.410Z,163.39
2023-04-11T12:35:03.491Z,162.50
2023-04-11T12:36:03.343Z,162.32
2023-04-11T12:37:03.322Z,162.46
2023-04-11T12:38:03.296Z,162.03
2023-04-11T12:39:03.291Z,161.11
2023-04-11T12:40:03.296Z,162.05